sensor_id;sensor_type;location;lat;lon;timestamp;P1;durP1;ratioP1;P2;durP2;ratioP2
25980;SDS011;13772;52.996;9.124;2023-05-20T07:53:54;3.53;;;1.67;;
25980;SDS011;13772;52.996;9.124;2023-05-20T07:56:20;3.53;;;1.48;;
25980;SDS011;13772;52.996;9.124;2023-05-20T07:58:52;3.85;;;1.50;;
25980;SDS011;13772;52.996;9.124;2023-05-20T08:01:18;4.85;;;1.55;;
25980;SDS011;13772;52.996;9.124;2023-05-20T08:03:44;6.50;;;1.63;;
25980;SDS011;13772;52.996;9.124;2023-05-20T08:06:12;3.35;;;1.48;;
25980;SDS011;13772;52.996;9.124;2023-05-20T08:08:38;7.13;;;1.80;;
25980;SDS011;13772;52.996;9.124;2023-05-20T08:11:10;6.40;;;1.50;;
25980;SDS011;13772;52.996;9.124;2023-05-20T08:13:37;2.88;;;1.40;;
25980;SDS011;13772;52.996;9.124;2023-05-20T08:16:03;5.18;;;1.75;;
25980;SDS011;13772;52.996;9.124;2023-05-20T08:18:29;4.05;;;2.05;;
25980;SDS011;13772;52.996;9.124;2023-05-20T08:20:55;5.90;;;1.75;;
25980;SDS011;13772;52.996;9.124;2023-05-20T08:23:20;3.20;;;1.55;;
25980;SDS011;13772;52.996;9.124;2023-05-20T08:25:45;8.20;;;1.40;;
25980;SDS011;13772;52.996;9.124;2023-05-20T08:28:12;5.50;;;1.50;;
25980;SDS011;13772;52.996;9.124;2023-05-20T08:30:38;3.33;;;1.25;;
25980;SDS011;13772;52.996;9.124;2023-05-20T08:33:03;6.00;;;1.85;;
25980;SDS011;13772;52.996;9.124;2023-05-20T08:35:29;5.60;;;1.83;;
25980;SDS011;13772;52.996;9.124;2023-05-20T08:37:55;5.97;;;1.55;;
25980;SDS011;13772;52.996;9.124;2023-05-20T08:40:20;4.95;;;1.55;;
25980;SDS011;13772;52.996;9.124;2023-05-20T08:42:47;4.07;;;1.27;;
25980;SDS011;13772;52.996;9.124;2023-05-20T08:45:14;4.22;;;1.63;;
25980;SDS011;13772;52.996;9.124;2023-05-20T08:47:41;4.32;;;1.50;;
25980;SDS011;13772;52.996;9.124;2023-05-20T08:50:10;3.88;;;1.52;;
25980;SDS011;13772;52.996;9.124;2023-05-20T08:52:36;4.05;;;1.60;;
25980;SDS011;13772;52.996;9.124;2023-05-20T08:55:02;3.75;;;1.20;;
25980;SDS011;13772;52.996;9.124;2023-05-20T08:57:28;2.92;;;1.40;;
25980;SDS011;13772;52.996;9.124;2023-05-20T08:59:54;3.67;;;1.45;;
25980;SDS011;13772;52.996;9.124;2023-05-20T09:02:19;2.85;;;1.45;;
25980;SDS011;13772;52.996;9.124;2023-05-20T09:04:44;5.20;;;1.35;;
25980;SDS011;13772;52.996;9.124;2023-05-20T09:07:10;6.80;;;1.30;;
25980;SDS011;13772;52.996;9.124;2023-05-20T09:09:35;3.05;;;1.20;;
25980;SDS011;13772;52.996;9.124;2023-05-20T09:12:01;4.82;;;1.10;;
25980;SDS011;13772;52.996;9.124;2023-05-20T09:14:27;4.65;;;1.40;;
25980;SDS011;13772;52.996;9.124;2023-05-20T09:16:52;6.93;;;1.70;;
25980;SDS011;13772;52.996;9.124;2023-05-20T09:19:21;4.13;;;1.20;;
25980;SDS011;13772;52.996;9.124;2023-05-20T09:21:47;2.25;;;1.30;;
25980;SDS011;13772;52.996;9.124;2023-05-20T09:24:12;3.38;;;1.60;;
25980;SDS011;13772;52.996;9.124;2023-05-20T09:26:37;4.07;;;1.50;;
25980;SDS011;13772;52.996;9.124;2023-05-20T09:29:02;3.85;;;1.42;;
25980;SDS011;13772;52.996;9.124;2023-05-20T09:31:31;4.32;;;1.10;;
25980;SDS011;13772;52.996;9.124;2023-05-20T09:33:58;3.83;;;1.45;;
25980;SDS011;13772;52.996;9.124;2023-05-20T09:36:23;4.85;;;1.50;;
25980;SDS011;13772;52.996;9.124;2023-05-20T09:38:52;3.50;;;1.10;;
25980;SDS011;13772;52.996;9.124;2023-05-20T09:41:19;2.67;;;1.20;;
25980;SDS011;13772;52.996;9.124;2023-05-20T09:46:12;4.18;;;1.23;;
25980;SDS011;13772;52.996;9.124;2023-05-20T09:48:38;2.65;;;1.23;;
25980;SDS011;13772;52.996;9.124;2023-05-20T09:51:04;2.97;;;1.20;;
25980;SDS011;13772;52.996;9.124;2023-05-20T09:53:30;6.10;;;1.40;;
25980;SDS011;13772;52.996;9.124;2023-05-20T09:55:56;3.85;;;1.40;;
25980;SDS011;13772;52.996;9.124;2023-05-20T09:58:22;5.20;;;1.40;;
25980;SDS011;13772;52.996;9.124;2023-05-20T10:00:47;2.45;;;1.30;;
25980;SDS011;13772;52.996;9.124;2023-05-20T10:03:12;7.00;;;1.52;;
25980;SDS011;13772;52.996;9.124;2023-05-20T10:05:39;3.10;;;1.40;;
25980;SDS011;13772;52.996;9.124;2023-05-20T10:10:41;4.25;;;1.00;;
25980;SDS011;13772;52.996;9.124;2023-05-20T10:13:19;4.38;;;1.20;;
25980;SDS011;13772;52.996;9.124;2023-05-20T10:20:55;1.75;;;0.88;;
25980;SDS011;13772;52.996;9.124;2023-05-20T10:25:50;3.50;;;1.38;;
25980;SDS011;13772;52.996;9.124;2023-05-20T10:28:16;2.05;;;0.98;;
25980;SDS011;13772;52.996;9.124;2023-05-20T10:30:48;3.63;;;1.13;;
25980;SDS011;13772;52.996;9.124;2023-05-20T10:33:16;3.42;;;1.05;;
25980;SDS011;13772;52.996;9.124;2023-05-20T10:35:46;4.38;;;1.10;;
25980;SDS011;13772;52.996;9.124;2023-05-20T10:38:11;2.35;;;1.05;;
25980;SDS011;13772;52.996;9.124;2023-05-20T10:40:37;4.05;;;1.08;;
25980;SDS011;13772;52.996;9.124;2023-05-20T10:45:57;2.47;;;1.27;;
25980;SDS011;13772;52.996;9.124;2023-05-20T10:48:24;2.55;;;1.20;;
25980;SDS011;13772;52.996;9.124;2023-05-20T10:50:50;3.63;;;1.13;;
25980;SDS011;13772;52.996;9.124;2023-05-20T10:53:17;3.63;;;1.13;;
25980;SDS011;13772;52.996;9.124;2023-05-20T10:55:47;3.80;;;1.10;;
25980;SDS011;13772;52.996;9.124;2023-05-20T10:58:15;3.13;;;1.25;;
25980;SDS011;13772;52.996;9.124;2023-05-20T11:00:41;2.90;;;1.42;;
25980;SDS011;13772;52.996;9.124;2023-05-20T11:03:06;4.05;;;1.20;;
25980;SDS011;13772;52.996;9.124;2023-05-20T11:05:32;2.58;;;1.00;;
25980;SDS011;13772;52.996;9.124;2023-05-20T11:08:01;3.05;;;1.13;;
25980;SDS011;13772;52.996;9.124;2023-05-20T11:10:27;3.80;;;1.50;;
25980;SDS011;13772;52.996;9.124;2023-05-20T11:12:52;4.20;;;1.25;;
25980;SDS011;13772;52.996;9.124;2023-05-20T11:15:17;2.08;;;1.10;;
25980;SDS011;13772;52.996;9.124;2023-05-20T11:17:50;3.53;;;1.00;;
25980;SDS011;13772;52.996;9.124;2023-05-20T11:20:15;2.17;;;1.20;;
25980;SDS011;13772;52.996;9.124;2023-05-20T11:22:41;1.92;;;1.10;;
25980;SDS011;13772;52.996;9.124;2023-05-20T11:25:06;3.90;;;1.20;;
25980;SDS011;13772;52.996;9.124;2023-05-20T11:27:32;4.13;;;1.20;;
25980;SDS011;13772;52.996;9.124;2023-05-20T11:29:58;2.55;;;1.23;;
25980;SDS011;13772;52.996;9.124;2023-05-20T11:32:23;1.42;;;0.82;;
25980;SDS011;13772;52.996;9.124;2023-05-20T11:34:50;2.67;;;1.20;;
25980;SDS011;13772;52.996;9.124;2023-05-20T11:37:15;3.60;;;1.08;;
25980;SDS011;13772;52.996;9.124;2023-05-20T11:39:41;3.88;;;1.40;;
25980;SDS011;13772;52.996;9.124;2023-05-20T11:42:07;2.92;;;1.30;;
25980;SDS011;13772;52.996;9.124;2023-05-20T11:44:32;5.43;;;1.30;;
25980;SDS011;13772;52.996;9.124;2023-05-20T11:46:58;2.90;;;1.25;;
25980;SDS011;13772;52.996;9.124;2023-05-20T11:49:24;4.43;;;1.33;;
25980;SDS011;13772;52.996;9.124;2023-05-20T11:51:49;2.28;;;1.38;;
25980;SDS011;13772;52.996;9.124;2023-05-20T11:54:14;2.85;;;1.10;;
25980;SDS011;13772;52.996;9.124;2023-05-20T11:56:40;2.10;;;1.20;;
25980;SDS011;13772;52.996;9.124;2023-05-20T11:59:09;2.53;;;1.20;;
25980;SDS011;13772;52.996;9.124;2023-05-20T12:01:36;3.97;;;1.38;;
25980;SDS011;13772;52.996;9.124;2023-05-20T12:04:02;2.60;;;1.30;;
25980;SDS011;13772;52.996;9.124;2023-05-20T12:06:28;3.35;;;1.50;;
25980;SDS011;13772;52.996;9.124;2023-05-20T12:08:53;3.90;;;1.27;;
25980;SDS011;13772;52.996;9.124;2023-05-20T12:11:18;6.82;;;1.95;;
25980;SDS011;13772;52.996;9.124;2023-05-20T12:13:43;5.13;;;2.00;;
25980;SDS011;13772;52.996;9.124;2023-05-20T12:16:08;4.15;;;1.98;;
25980;SDS011;13772;52.996;9.124;2023-05-20T12:18:34;5.95;;;2.50;;
25980;SDS011;13772;52.996;9.124;2023-05-20T12:20:59;4.10;;;1.50;;
25980;SDS011;13772;52.996;9.124;2023-05-20T12:23:24;5.32;;;1.45;;
25980;SDS011;13772;52.996;9.124;2023-05-20T12:25:50;4.05;;;1.55;;
25980;SDS011;13772;52.996;9.124;2023-05-20T12:28:15;2.42;;;1.60;;
25980;SDS011;13772;52.996;9.124;2023-05-20T12:30:43;4.70;;;2.03;;
25980;SDS011;13772;52.996;9.124;2023-05-20T12:33:09;9.15;;;5.88;;
25980;SDS011;13772;52.996;9.124;2023-05-20T12:35:38;4.70;;;1.55;;
25980;SDS011;13772;52.996;9.124;2023-05-20T12:38:03;4.43;;;1.50;;
25980;SDS011;13772;52.996;9.124;2023-05-20T12:40:29;4.40;;;1.35;;
25980;SDS011;13772;52.996;9.124;2023-05-20T12:42:54;4.22;;;1.30;;
25980;SDS011;13772;52.996;9.124;2023-05-20T12:45:19;3.17;;;1.30;;
25980;SDS011;13772;52.996;9.124;2023-05-20T12:47:44;4.30;;;1.60;;
25980;SDS011;13772;52.996;9.124;2023-05-20T12:50:10;3.75;;;1.75;;
25980;SDS011;13772;52.996;9.124;2023-05-20T12:52:35;5.63;;;1.38;;
25980;SDS011;13772;52.996;9.124;2023-05-20T12:55:00;2.30;;;1.13;;
25980;SDS011;13772;52.996;9.124;2023-05-20T12:57:25;5.33;;;2.07;;
25980;SDS011;13772;52.996;9.124;2023-05-20T12:59:51;2.70;;;1.10;;
25980;SDS011;13772;52.996;9.124;2023-05-20T13:02:16;4.88;;;1.40;;
25980;SDS011;13772;52.996;9.124;2023-05-20T13:04:41;2.72;;;1.70;;
25980;SDS011;13772;52.996;9.124;2023-05-20T13:07:06;3.40;;;1.50;;
25980;SDS011;13772;52.996;9.124;2023-05-20T13:09:32;3.70;;;1.70;;
25980;SDS011;13772;52.996;9.124;2023-05-20T13:11:58;3.33;;;1.52;;
25980;SDS011;13772;52.996;9.124;2023-05-20T13:14:23;2.45;;;1.30;;
25980;SDS011;13772;52.996;9.124;2023-05-20T13:16:49;3.28;;;1.50;;
25980;SDS011;13772;52.996;9.124;2023-05-20T13:19:18;3.40;;;1.40;;
25980;SDS011;13772;52.996;9.124;2023-05-20T13:21:43;4.38;;;1.52;;
25980;SDS011;13772;52.996;9.124;2023-05-20T13:24:09;2.78;;;1.30;;
25980;SDS011;13772;52.996;9.124;2023-05-20T13:26:34;2.90;;;1.30;;
25980;SDS011;13772;52.996;9.124;2023-05-20T13:28:59;2.72;;;1.20;;
25980;SDS011;13772;52.996;9.124;2023-05-20T13:31:24;5.03;;;1.40;;
25980;SDS011;13772;52.996;9.124;2023-05-20T13:33:50;5.47;;;1.60;;
25980;SDS011;13772;52.996;9.124;2023-05-20T13:36:17;3.20;;;1.40;;
25980;SDS011;13772;52.996;9.124;2023-05-20T13:38:42;4.63;;;1.30;;
25980;SDS011;13772;52.996;9.124;2023-05-20T13:41:07;3.70;;;1.30;;
25980;SDS011;13772;52.996;9.124;2023-05-20T13:43:33;3.90;;;1.20;;
25980;SDS011;13772;52.996;9.124;2023-05-20T13:45:58;3.58;;;1.42;;
25980;SDS011;13772;52.996;9.124;2023-05-20T13:48:23;2.90;;;1.05;;
25980;SDS011;13772;52.996;9.124;2023-05-20T13:50:48;3.47;;;1.45;;
25980;SDS011;13772;52.996;9.124;2023-05-20T13:53:14;4.97;;;1.30;;
25980;SDS011;13772;52.996;9.124;2023-05-20T13:55:39;3.80;;;1.23;;
25980;SDS011;13772;52.996;9.124;2023-05-20T13:58:05;2.38;;;1.40;;
25980;SDS011;13772;52.996;9.124;2023-05-20T14:00:34;4.82;;;1.60;;
25980;SDS011;13772;52.996;9.124;2023-05-20T14:02:59;3.90;;;1.38;;
25980;SDS011;13772;52.996;9.124;2023-05-20T14:05:25;3.22;;;1.33;;
25980;SDS011;13772;52.996;9.124;2023-05-20T14:07:50;4.20;;;1.42;;
25980;SDS011;13772;52.996;9.124;2023-05-20T14:10:15;2.58;;;1.45;;
25980;SDS011;13772;52.996;9.124;2023-05-20T14:12:41;3.70;;;1.65;;
25980;SDS011;13772;52.996;9.124;2023-05-20T14:15:07;4.05;;;1.50;;
25980;SDS011;13772;52.996;9.124;2023-05-20T14:17:32;3.55;;;1.50;;
25980;SDS011;13772;52.996;9.124;2023-05-20T14:19:57;3.80;;;1.40;;
25980;SDS011;13772;52.996;9.124;2023-05-20T14:22:24;3.33;;;1.58;;
25980;SDS011;13772;52.996;9.124;2023-05-20T14:24:49;3.15;;;1.48;;
25980;SDS011;13772;52.996;9.124;2023-05-20T14:27:14;3.33;;;1.70;;
25980;SDS011;13772;52.996;9.124;2023-05-20T14:29:40;4.10;;;1.70;;
25980;SDS011;13772;52.996;9.124;2023-05-20T14:32:05;3.00;;;1.77;;
25980;SDS011;13772;52.996;9.124;2023-05-20T14:34:30;3.47;;;1.88;;
25980;SDS011;13772;52.996;9.124;2023-05-20T14:36:56;5.53;;;1.63;;
25980;SDS011;13772;52.996;9.124;2023-05-20T14:39:21;2.13;;;1.38;;
25980;SDS011;13772;52.996;9.124;2023-05-20T14:41:46;2.70;;;1.63;;
25980;SDS011;13772;52.996;9.124;2023-05-20T14:44:11;3.60;;;2.20;;
25980;SDS011;13772;52.996;9.124;2023-05-20T14:46:36;3.17;;;1.77;;
25980;SDS011;13772;52.996;9.124;2023-05-20T14:49:02;9.73;;;2.70;;
25980;SDS011;13772;52.996;9.124;2023-05-20T14:51:27;7.78;;;3.88;;
25980;SDS011;13772;52.996;9.124;2023-05-20T14:53:52;4.50;;;2.63;;
25980;SDS011;13772;52.996;9.124;2023-05-20T14:56:17;4.37;;;2.50;;
25980;SDS011;13772;52.996;9.124;2023-05-20T14:58:42;4.07;;;1.90;;
25980;SDS011;13772;52.996;9.124;2023-05-20T15:01:08;4.17;;;1.73;;
25980;SDS011;13772;52.996;9.124;2023-05-20T15:03:33;3.08;;;1.73;;
25980;SDS011;13772;52.996;9.124;2023-05-20T15:05:58;3.90;;;1.70;;
25980;SDS011;13772;52.996;9.124;2023-05-20T15:08:23;2.67;;;1.73;;
25980;SDS011;13772;52.996;9.124;2023-05-20T15:10:48;3.70;;;2.20;;
25980;SDS011;13772;52.996;9.124;2023-05-20T15:13:14;3.75;;;1.77;;
25980;SDS011;13772;52.996;9.124;2023-05-20T15:15:39;2.75;;;2.00;;
25980;SDS011;13772;52.996;9.124;2023-05-20T15:18:05;4.28;;;2.00;;
25980;SDS011;13772;52.996;9.124;2023-05-20T15:20:30;3.70;;;1.95;;
25980;SDS011;13772;52.996;9.124;2023-05-20T15:22:55;3.90;;;1.97;;
25980;SDS011;13772;52.996;9.124;2023-05-20T15:25:20;3.92;;;2.10;;
25980;SDS011;13772;52.996;9.124;2023-05-20T15:27:45;5.23;;;2.23;;
25980;SDS011;13772;52.996;9.124;2023-05-20T15:30:11;4.43;;;1.92;;
25980;SDS011;13772;52.996;9.124;2023-05-20T15:32:36;3.28;;;1.73;;
25980;SDS011;13772;52.996;9.124;2023-05-20T15:35:02;3.22;;;2.10;;
25980;SDS011;13772;52.996;9.124;2023-05-20T15:37:28;4.75;;;1.65;;
25980;SDS011;13772;52.996;9.124;2023-05-20T15:39:53;5.22;;;2.10;;
25980;SDS011;13772;52.996;9.124;2023-05-20T15:42:18;3.65;;;1.90;;
25980;SDS011;13772;52.996;9.124;2023-05-20T15:44:45;3.50;;;2.17;;
25980;SDS011;13772;52.996;9.124;2023-05-20T15:47:10;4.97;;;2.20;;
25980;SDS011;13772;52.996;9.124;2023-05-20T15:49:36;5.13;;;2.45;;
25980;SDS011;13772;52.996;9.124;2023-05-20T15:52:01;3.92;;;1.92;;
25980;SDS011;13772;52.996;9.124;2023-05-20T15:54:26;3.17;;;2.20;;
25980;SDS011;13772;52.996;9.124;2023-05-20T15:56:52;4.77;;;2.60;;
25980;SDS011;13772;52.996;9.124;2023-05-20T15:59:17;4.93;;;2.35;;
25980;SDS011;13772;52.996;9.124;2023-05-20T16:01:42;4.77;;;2.40;;
25980;SDS011;13772;52.996;9.124;2023-05-20T16:04:07;4.05;;;2.40;;
25980;SDS011;13772;52.996;9.124;2023-05-20T16:06:32;5.30;;;2.65;;
25980;SDS011;13772;52.996;9.124;2023-05-20T16:08:58;5.82;;;2.83;;
25980;SDS011;13772;52.996;9.124;2023-05-20T16:11:23;3.28;;;2.10;;
25980;SDS011;13772;52.996;9.124;2023-05-20T16:13:48;4.40;;;2.20;;
25980;SDS011;13772;52.996;9.124;2023-05-20T16:16:14;4.43;;;2.03;;
25980;SDS011;13772;52.996;9.124;2023-05-20T16:18:40;4.82;;;2.30;;
25980;SDS011;13772;52.996;9.124;2023-05-20T16:21:05;4.28;;;2.13;;
25980;SDS011;13772;52.996;9.124;2023-05-20T16:23:32;5.07;;;2.15;;
25980;SDS011;13772;52.996;9.124;2023-05-20T16:25:57;5.70;;;2.70;;
25980;SDS011;13772;52.996;9.124;2023-05-20T16:28:22;4.45;;;2.13;;
25980;SDS011;13772;52.996;9.124;2023-05-20T16:30:49;5.60;;;3.03;;
25980;SDS011;13772;52.996;9.124;2023-05-20T16:35:43;3.95;;;2.47;;
25980;SDS011;13772;52.996;9.124;2023-05-20T16:38:08;4.55;;;2.75;;
25980;SDS011;13772;52.996;9.124;2023-05-20T16:40:33;3.55;;;2.47;;
25980;SDS011;13772;52.996;9.124;2023-05-20T16:42:59;4.43;;;2.67;;
25980;SDS011;13772;52.996;9.124;2023-05-20T16:45:24;5.55;;;2.97;;
25980;SDS011;13772;52.996;9.124;2023-05-20T16:47:50;4.75;;;2.65;;
25980;SDS011;13772;52.996;9.124;2023-05-20T16:50:15;5.90;;;2.72;;
25980;SDS011;13772;52.996;9.124;2023-05-20T16:52:40;5.03;;;2.70;;
25980;SDS011;13772;52.996;9.124;2023-05-20T16:55:06;5.93;;;2.40;;
25980;SDS011;13772;52.996;9.124;2023-05-20T16:57:32;5.55;;;2.20;;
25980;SDS011;13772;52.996;9.124;2023-05-20T16:59:57;5.43;;;2.85;;
25980;SDS011;13772;52.996;9.124;2023-05-20T17:02:22;5.53;;;2.53;;
25980;SDS011;13772;52.996;9.124;2023-05-20T17:04:48;3.33;;;2.08;;
25980;SDS011;13772;52.996;9.124;2023-05-20T17:07:13;5.45;;;2.67;;
25980;SDS011;13772;52.996;9.124;2023-05-20T17:09:38;3.42;;;2.28;;
25980;SDS011;13772;52.996;9.124;2023-05-20T17:12:03;3.97;;;2.45;;
25980;SDS011;13772;52.996;9.124;2023-05-20T17:14:29;4.78;;;2.67;;
25980;SDS011;13772;52.996;9.124;2023-05-20T17:16:54;3.40;;;2.03;;
25980;SDS011;13772;52.996;9.124;2023-05-20T17:19:19;3.95;;;2.38;;
25980;SDS011;13772;52.996;9.124;2023-05-20T17:21:45;4.65;;;2.00;;
25980;SDS011;13772;52.996;9.124;2023-05-20T17:24:10;3.78;;;2.40;;
25980;SDS011;13772;52.996;9.124;2023-05-20T17:26:35;4.03;;;2.42;;
25980;SDS011;13772;52.996;9.124;2023-05-20T17:29:00;3.67;;;2.45;;
25980;SDS011;13772;52.996;9.124;2023-05-20T17:31:26;7.13;;;2.35;;
25980;SDS011;13772;52.996;9.124;2023-05-20T17:33:51;5.18;;;2.38;;
25980;SDS011;13772;52.996;9.124;2023-05-20T17:36:16;4.57;;;2.60;;
25980;SDS011;13772;52.996;9.124;2023-05-20T17:38:41;6.40;;;2.42;;
25980;SDS011;13772;52.996;9.124;2023-05-20T17:41:07;3.92;;;2.28;;
25980;SDS011;13772;52.996;9.124;2023-05-20T17:43:32;10.07;;;2.40;;
25980;SDS011;13772;52.996;9.124;2023-05-20T17:45:57;4.82;;;2.40;;
25980;SDS011;13772;52.996;9.124;2023-05-20T17:48:22;5.43;;;2.28;;
25980;SDS011;13772;52.996;9.124;2023-05-20T17:50:48;3.63;;;2.15;;
25980;SDS011;13772;52.996;9.124;2023-05-20T17:53:13;6.50;;;2.30;;
25980;SDS011;13772;52.996;9.124;2023-05-20T17:55:38;5.50;;;2.42;;
25980;SDS011;13772;52.996;9.124;2023-05-20T17:58:04;5.15;;;2.03;;
25980;SDS011;13772;52.996;9.124;2023-05-20T18:00:31;3.33;;;2.10;;
25980;SDS011;13772;52.996;9.124;2023-05-20T18:02:58;3.72;;;2.30;;
25980;SDS011;13772;52.996;9.124;2023-05-20T18:05:24;4.13;;;2.28;;
25980;SDS011;13772;52.996;9.124;2023-05-20T18:07:49;3.55;;;2.30;;
25980;SDS011;13772;52.996;9.124;2023-05-20T18:10:14;4.03;;;1.98;;
25980;SDS011;13772;52.996;9.124;2023-05-20T18:12:40;2.95;;;1.70;;
25980;SDS011;13772;52.996;9.124;2023-05-20T18:15:06;7.85;;;2.22;;
25980;SDS011;13772;52.996;9.124;2023-05-20T18:17:32;3.03;;;2.20;;
25980;SDS011;13772;52.996;9.124;2023-05-20T18:19:57;3.97;;;2.30;;
25980;SDS011;13772;52.996;9.124;2023-05-20T18:22:22;2.90;;;1.85;;
25980;SDS011;13772;52.996;9.124;2023-05-20T18:24:47;4.32;;;1.88;;
25980;SDS011;13772;52.996;9.124;2023-05-20T18:27:12;6.38;;;1.95;;
25980;SDS011;13772;52.996;9.124;2023-05-20T18:29:38;3.80;;;2.00;;
25980;SDS011;13772;52.996;9.124;2023-05-20T18:32:03;4.45;;;1.80;;
25980;SDS011;13772;52.996;9.124;2023-05-20T18:34:28;4.40;;;2.20;;
25980;SDS011;13772;52.996;9.124;2023-05-20T18:36:53;3.60;;;1.98;;
25980;SDS011;13772;52.996;9.124;2023-05-20T18:39:19;3.38;;;2.00;;
25980;SDS011;13772;52.996;9.124;2023-05-20T18:41:47;6.32;;;2.55;;
25980;SDS011;13772;52.996;9.124;2023-05-20T18:44:16;3.80;;;1.83;;
25980;SDS011;13772;52.996;9.124;2023-05-20T18:46:41;3.55;;;1.85;;
25980;SDS011;13772;52.996;9.124;2023-05-20T18:49:07;3.83;;;2.30;;
25980;SDS011;13772;52.996;9.124;2023-05-20T18:51:32;3.58;;;2.00;;
25980;SDS011;13772;52.996;9.124;2023-05-20T18:54:00;2.80;;;1.80;;
25980;SDS011;13772;52.996;9.124;2023-05-20T18:56:26;3.30;;;2.00;;
25980;SDS011;13772;52.996;9.124;2023-05-20T18:58:51;8.10;;;2.08;;
25980;SDS011;13772;52.996;9.124;2023-05-20T19:01:16;3.90;;;1.92;;
25980;SDS011;13772;52.996;9.124;2023-05-20T19:03:42;2.88;;;2.00;;
25980;SDS011;13772;52.996;9.124;2023-05-20T19:06:09;3.53;;;1.88;;
25980;SDS011;13772;52.996;9.124;2023-05-20T19:08:35;3.25;;;2.03;;
25980;SDS011;13772;52.996;9.124;2023-05-20T19:11:00;4.80;;;2.10;;
25980;SDS011;13772;52.996;9.124;2023-05-20T19:13:25;3.85;;;2.00;;
25980;SDS011;13772;52.996;9.124;2023-05-20T19:15:50;4.10;;;2.10;;
25980;SDS011;13772;52.996;9.124;2023-05-20T19:18:16;5.75;;;2.20;;
25980;SDS011;13772;52.996;9.124;2023-05-20T19:20:41;4.53;;;2.05;;
25980;SDS011;13772;52.996;9.124;2023-05-20T19:23:06;5.45;;;2.25;;
25980;SDS011;13772;52.996;9.124;2023-05-20T19:25:31;4.30;;;2.17;;
25980;SDS011;13772;52.996;9.124;2023-05-20T19:27:57;4.63;;;2.55;;
25980;SDS011;13772;52.996;9.124;2023-05-20T19:30:22;4.68;;;1.90;;
25980;SDS011;13772;52.996;9.124;2023-05-20T19:32:47;4.90;;;2.10;;
25980;SDS011;13772;52.996;9.124;2023-05-20T19:35:12;5.72;;;2.35;;
25980;SDS011;13772;52.996;9.124;2023-05-20T19:37:37;3.97;;;2.35;;
25980;SDS011;13772;52.996;9.124;2023-05-20T19:40:03;4.32;;;2.50;;
25980;SDS011;13772;52.996;9.124;2023-05-20T19:42:28;3.28;;;1.98;;
25980;SDS011;13772;52.996;9.124;2023-05-20T19:44:53;5.45;;;2.75;;
25980;SDS011;13772;52.996;9.124;2023-05-20T19:47:18;6.10;;;2.40;;
25980;SDS011;13772;52.996;9.124;2023-05-20T19:49:44;5.80;;;2.42;;
25980;SDS011;13772;52.996;9.124;2023-05-20T19:52:09;4.15;;;2.53;;
25980;SDS011;13772;52.996;9.124;2023-05-20T19:54:35;8.68;;;2.65;;
25980;SDS011;13772;52.996;9.124;2023-05-20T19:57:00;5.05;;;2.50;;
25980;SDS011;13772;52.996;9.124;2023-05-20T19:59:25;5.07;;;2.60;;
25980;SDS011;13772;52.996;9.124;2023-05-20T20:01:51;5.32;;;2.22;;
25980;SDS011;13772;52.996;9.124;2023-05-20T20:04:16;4.60;;;2.50;;
25980;SDS011;13772;52.996;9.124;2023-05-20T20:06:42;4.35;;;2.45;;
25980;SDS011;13772;52.996;9.124;2023-05-20T20:09:07;4.22;;;2.53;;
25980;SDS011;13772;52.996;9.124;2023-05-20T20:11:33;5.70;;;2.35;;
25980;SDS011;13772;52.996;9.124;2023-05-20T20:13:58;5.32;;;2.78;;
25980;SDS011;13772;52.996;9.124;2023-05-20T20:16:23;3.72;;;2.47;;
25980;SDS011;13772;52.996;9.124;2023-05-20T20:18:50;7.45;;;2.60;;
25980;SDS011;13772;52.996;9.124;2023-05-20T20:21:16;5.32;;;2.83;;
25980;SDS011;13772;52.996;9.124;2023-05-20T20:23:42;5.45;;;2.67;;
25980;SDS011;13772;52.996;9.124;2023-05-20T20:26:07;7.78;;;3.13;;
25980;SDS011;13772;52.996;9.124;2023-05-20T20:28:32;3.65;;;2.67;;
25980;SDS011;13772;52.996;9.124;2023-05-20T20:30:57;5.50;;;2.58;;
25980;SDS011;13772;52.996;9.124;2023-05-20T20:33:22;6.35;;;2.78;;
25980;SDS011;13772;52.996;9.124;2023-05-20T20:35:48;6.18;;;2.72;;
25980;SDS011;13772;52.996;9.124;2023-05-20T20:38:13;5.05;;;2.90;;
25980;SDS011;13772;52.996;9.124;2023-05-20T20:40:39;3.95;;;2.70;;
25980;SDS011;13772;52.996;9.124;2023-05-20T20:43:06;6.20;;;2.90;;
25980;SDS011;13772;52.996;9.124;2023-05-20T20:45:32;6.28;;;2.90;;
25980;SDS011;13772;52.996;9.124;2023-05-20T20:47:59;4.63;;;2.85;;
25980;SDS011;13772;52.996;9.124;2023-05-20T20:50:25;4.07;;;2.65;;
25980;SDS011;13772;52.996;9.124;2023-05-20T20:52:50;6.15;;;2.88;;
25980;SDS011;13772;52.996;9.124;2023-05-20T20:55:16;4.70;;;2.92;;
25980;SDS011;13772;52.996;9.124;2023-05-20T20:57:41;6.20;;;3.00;;
25980;SDS011;13772;52.996;9.124;2023-05-20T21:00:08;7.88;;;2.80;;
25980;SDS011;13772;52.996;9.124;2023-05-20T21:02:41;6.65;;;3.17;;
25980;SDS011;13772;52.996;9.124;2023-05-20T21:05:07;4.40;;;2.92;;
25980;SDS011;13772;52.996;9.124;2023-05-20T21:07:32;6.07;;;2.80;;
25980;SDS011;13772;52.996;9.124;2023-05-20T21:09:57;6.47;;;3.17;;
25980;SDS011;13772;52.996;9.124;2023-05-20T21:12:22;5.45;;;2.83;;
25980;SDS011;13772;52.996;9.124;2023-05-20T21:14:48;4.60;;;3.00;;
25980;SDS011;13772;52.996;9.124;2023-05-20T21:17:13;5.60;;;3.00;;
25980;SDS011;13772;52.996;9.124;2023-05-20T21:19:38;9.07;;;2.85;;
25980;SDS011;13772;52.996;9.124;2023-05-20T21:22:04;5.50;;;3.15;;
25980;SDS011;13772;52.996;9.124;2023-05-20T21:24:29;5.97;;;3.13;;
25980;SDS011;13772;52.996;9.124;2023-05-20T21:26:54;5.18;;;2.50;;
25980;SDS011;13772;52.996;9.124;2023-05-20T21:29:20;4.40;;;2.92;;
25980;SDS011;13772;52.996;9.124;2023-05-20T21:31:45;5.88;;;3.28;;
25980;SDS011;13772;52.996;9.124;2023-05-20T21:34:10;5.07;;;2.95;;
25980;SDS011;13772;52.996;9.124;2023-05-20T21:36:35;4.72;;;3.08;;
25980;SDS011;13772;52.996;9.124;2023-05-20T21:39:00;7.43;;;3.33;;
25980;SDS011;13772;52.996;9.124;2023-05-20T21:41:26;6.32;;;3.05;;
25980;SDS011;13772;52.996;9.124;2023-05-20T21:43:51;5.10;;;3.13;;
25980;SDS011;13772;52.996;9.124;2023-05-20T21:46:16;5.40;;;2.95;;
25980;SDS011;13772;52.996;9.124;2023-05-20T21:48:41;9.00;;;3.33;;
25980;SDS011;13772;52.996;9.124;2023-05-20T21:51:07;5.30;;;3.38;;
25980;SDS011;13772;52.996;9.124;2023-05-20T21:53:32;4.70;;;3.20;;
25980;SDS011;13772;52.996;9.124;2023-05-20T21:55:57;8.55;;;3.70;;
25980;SDS011;13772;52.996;9.124;2023-05-20T21:58:22;27.65;;;3.45;;
